Погода Боанена 2 недели

Иньямбане, Мозамбик

24 июля-06 августа
  • 24июля
    Сегодня
    +17°
    +28°
    Ясно и безоблачно
    ВремяПогодаТемператураВлажностьДавлениеВетер, м/сВероятность осадков
    02:00Ясно и безоблачно+21°C92 %763 мм2.2 м/с5 %
    05:00Ясно и безоблачно+18°C94 %763 мм2.3 м/с5 %
    08:00Ясно и безоблачно+21°C84 %763 мм3.8 м/с5 %
    11:00Ясно и безоблачно+26°C63 %762 мм5.0 м/с5 %
    14:00Ясно и безоблачно+28°C60 %759 мм5.8 м/с5 %
    17:00Ясно и безоблачно+25°C78 %758 мм5.7 м/с5 %
    20:00Ясно и безоблачно+23°C78 %759 мм4.0 м/с5 %
    23:00Ясно и безоблачно+22°C82 %759 мм2.6 м/с5 %
  • 25июля
    Четверг
    +16°
    +26°
    Небольшая облачность
    ВремяПогодаТемператураВлажностьДавлениеВетер, м/сВероятность осадков
    02:00Ясно и безоблачно+20°C87 %759 мм2.0 м/с5 %
    05:00Ясно и безоблачно+17°C93 %759 мм2.8 м/с5 %
    08:00Ясно и безоблачно+22°C74 %761 мм4.9 м/с5 %
    11:00Практически безоблачно+25°C57 %762 мм4.9 м/с8 %
    14:00Небольшая облачность+25°C52 %760 мм4.5 м/с8 %
    17:00Ясно и безоблачно+23°C60 %761 мм3.6 м/с8 %
    20:00Ясно и безоблачно+20°C75 %762 мм3.3 м/с5 %
    23:00Ясно и безоблачно+20°C85 %762 мм2.4 м/с11 %
  • 26июля
    Пятница
    +18°
    +27°
    Практически безоблачно
    ВремяПогодаТемператураВлажностьДавлениеВетер, м/сВероятность осадков
    02:00Ясно и безоблачно+19°C87 %761 мм2.1 м/с5 %
    05:00Ясно и безоблачно+16°C89 %761 мм1.5 м/с5 %
    08:00Ясно и безоблачно+20°C80 %762 мм1.2 м/с3 %
    11:00Ясно и безоблачно+25°C52 %762 мм1.6 м/с3 %
    14:00Практически безоблачно+26°C48 %760 мм3.3 м/с3 %
    17:00Ясно и безоблачно+24°C64 %760 мм3.8 м/с5 %
    20:00Ясно и безоблачно+21°C75 %761 мм3.0 м/с5 %
    23:00Ясно и безоблачно+21°C80 %761 мм3.3 м/с5 %
  • 27июля
    Суббота
    +19°
    +28°
    Ясно и безоблачно
    ВремяПогодаТемператураВлажностьДавлениеВетер, м/сВероятность осадков
    02:00Ясно и безоблачно+21°C86 %760 мм2.9 м/с9 %
    05:00Практически безоблачно+18°C86 %760 мм2.7 м/с11 %
    08:00Практически безоблачно+22°C70 %762 мм5.0 м/с20 %
    11:00Практически безоблачно+26°C56 %761 мм5.8 м/с11 %
    14:00Ясно и безоблачно+27°C55 %759 мм6.2 м/с4 %
    17:00Ясно и безоблачно+24°C67 %759 мм5.8 м/с5 %
    20:00Ясно и безоблачно+23°C70 %760 мм4.8 м/с5 %
    23:00Ясно и безоблачно+22°C71 %759 мм4.1 м/с5 %
  • 28июля
    Воскресенье
    +19°
    +30°
    Ясно и безоблачно
    ВремяПогодаТемператураВлажностьДавлениеВетер, м/сВероятность осадков
    02:00Ясно и безоблачно+22°C76 %758 мм4.6 м/с5 %
    05:00Ясно и безоблачно+20°C76 %757 мм5.4 м/с5 %
    08:00Ясно и безоблачно+22°C71 %759 мм5.3 м/с5 %
    11:00Ясно и безоблачно+28°C55 %757 мм6.6 м/с4 %
    14:00Ясно и безоблачно+30°C52 %755 мм6.1 м/с5 %
    17:00Ясно и безоблачно+27°C71 %755 мм5.2 м/с4 %
    20:00Ясно и безоблачно+23°C82 %757 мм3.3 м/с10 %
    23:00Ясно и безоблачно+22°C87 %757 мм1.7 м/с6 %
Мы используем cookies
Соглашаюсь